Nearby METAR Reports

 

KCMA - Camarillo, California, USA
Distance from station: WSW 4mi, 7km
Updated: Tue, 19-Sep-2017 6:55pm PDT
Clear
Clear
 Wind from W
Wind: W 7 mph , 11 km/h
Temperature: 70°F , 21°C
Dew Point: 59°F , 15°C
Humidity: 69%
Barometer: 29.86 inHg , 1011.2 hPa
Clouds: Clear
Visibility: 10 miles , 16 km
2017/09/20 01:55 KCMA 200155Z 26006KT 10SM CLR 21/15 A2986 RMK AO2 SLP120 T02060150
KNTD - Point Mugu Nas, California, USA
Distance from station: SSW 9mi, 15km
Updated: Tue, 19-Sep-2017 6:56pm PDT
Few Clouds
Few Clouds
 Wind from W
Wind: W 8 mph , 13 km/h
Temperature: 66°F , 19°C
Dew Point: 57°F , 14°C
Humidity: 73%
Barometer: 29.87 inHg , 1011.5 hPa
Clouds: Few Clouds
Visibility: 10 miles , 16 km
Cloud details: Few Clouds 4000 ft
2017/09/20 01:56 KNTD 200156Z 26007KT 10SM FEW040 19/14 A2987 RMK SLP116 T01940144
 
KOXR - Oxnard, California, USA
Distance from station: WSW 10mi, 16km
Updated: Tue, 19-Sep-2017 6:51pm PDT
Clear
Clear
 Wind from W
Wind: W 8 mph , 13 km/h
Temperature: 66°F , 19°C
Dew Point: 59°F , 15°C
Humidity: 78%
Barometer: 29.86 inHg , 1011.2 hPa
Clouds: Clear
Visibility: 10 miles , 16 km
2017/09/20 01:51 KOXR 200151Z 28007KT 10SM CLR 19/15 A2986 RMK AO2 SLP109 T01890150
KVNY - Van Nuys, California, USA
Distance from station: E 31mi, 50km
Updated: Tue, 19-Sep-2017 6:51pm PDT
Mostly cloudy
Mostly cloudy
 Wind from S
Wind: S 6 mph , 9 km/h
Temperature: 70°F , 21°C
Dew Point: 57°F , 14°C
Humidity: 64%
Barometer: 29.86 inHg , 1011.2 hPa
Clouds: Mostly cloudy
Visibility: 10 miles , 16 km
Cloud details: Mostly cloudy 3700 ft
2017/09/20 01:51 KVNY 200151Z 17005KT 10SM BKN037 21/14 A2986 RMK AO2 SLP103 T02110144
 
KWHP - La / Whiteman, California, USA
Distance from station: E 35mi, 56km
Updated: Tue, 19-Sep-2017 5:55pm PDT
Partly cloudy
Partly cloudy
 Wind from ESE
Wind: ESE 7 mph , 11 km/h
Temperature: 72°F , 22°C
Dew Point: 57°F , 14°C
Humidity: 61%
Barometer: 29.90 inHg , 1012.5 hPa
Clouds: Partly cloudy
Visibility: 10 miles , 16 km
Cloud details: Partly cloudy 3700 ft
2017/09/20 00:55 KWHP 200055Z 11006KT 10SM SCT037 22/14 A2990
KSMO - Santa Monica, California, USA
Distance from station: ESE 36mi, 58km
Updated: Tue, 19-Sep-2017 6:51pm PDT
Clear
Clear
 Wind from WSW
Wind: WSW 6 mph , 9 km/h
Temperature: 70°F , 21°C
Dew Point: 59°F , 15°C
Humidity: 69%
Barometer: 29.86 inHg , 1011.2 hPa
Clouds: Clear
Visibility: 10 miles , 16 km
2017/09/20 01:51 KSMO 200151Z 24005KT 10SM CLR 21/15 A2986 RMK AO2 SLP111 T02110150 $
 
KBUR - Burbank, California, USA
Distance from station: E 38mi, 61km
Updated: Tue, 19-Sep-2017 6:53pm PDT
Clear
Clear
 Wind from SSW
Wind: SSW 9 mph , 15 km/h
Temperature: 70°F , 21°C
Dew Point: 55°F , 13°C
Humidity: 60%
Barometer: 29.86 inHg , 1011.2 hPa
Clouds: Clear
Visibility: 10 miles , 16 km
2017/09/20 01:53 KBUR 200153Z AUTO 21008KT 10SM CLR 21/13 A2986 RMK AO2 SLP099 T02060133
KSDB - Sandberg, California, USA
Distance from station: NNE 40mi, 64km
Updated: Tue, 19-Sep-2017 6:53pm PDT
Clear
Clear
 Wind from N
Wind: N 15 mph , 24 km/h, Gust: 25 mph , 41 km/h
Temperature: 55°F , 13°C
Dew Point: 46°F , 8°C
Humidity: 72%
Barometer: 29.99 inHg , 1015.6 hPa
Clouds: Clear
Visibility: 10 miles , 16 km
2017/09/20 01:53 KSDB 200153Z AUTO 35013G22KT 10SM CLR 13/08 A2999 RMK AO2 SLP122 T01330083 $
 
KLAX - Los Angeles, California, USA
Distance from station: ESE 42mi, 68km
Updated: Tue, 19-Sep-2017 6:53pm PDT
Few Clouds
Few Clouds
 Wind from W
Wind: W 13 mph , 20 km/h
Temperature: 68°F , 20°C
Dew Point: 61°F , 16°C
Humidity: 78%
Barometer: 29.86 inHg , 1011.2 hPa
Clouds: Few Clouds
Visibility: 10 miles , 16 km
Cloud details: Few Clouds 1500 ft
2017/09/20 01:53 KLAX 200153Z 28011KT 10SM FEW015 20/16 A2986 RMK AO2 SLP111 T02000161
KCQT - Los Angeles, California, USA
Distance from station: ESE 45mi, 73km
Updated: Tue, 19-Sep-2017 6:47pm PDT
Overcast
Overcast
 Wind from W
Wind: W 3 mph , 6 km/h
Temperature: 72°F , 22°C
Dew Point: 61°F , 16°C
Humidity: 69%
Barometer: 29.86 inHg , 1011.2 hPa
Clouds: Overcast
Visibility: 10 miles , 16 km
Cloud details: Overcast 3700 ft
2017/09/20 01:47 KCQT 200147Z AUTO 26003KT 10SM OVC037 22/16 A2986 RMK AO2 SLP108 T02170156
 
KHHR - Hawthorne, California, USA
Distance from station: ESE 45mi, 73km
Updated: Tue, 19-Sep-2017 6:53pm PDT
Clear
Clear
 Wind from WNW
Wind: WNW 7 mph , 11 km/h
Temperature: 70°F , 21°C
Dew Point: 61°F , 16°C
Humidity: 73%
Barometer: 29.87 inHg , 1011.5 hPa
Clouds: Clear
Visibility: 10 miles , 16 km
2017/09/20 01:53 KHHR 200153Z 29006KT 10SM CLR 21/16 A2987 RMK AO2 SLP112 T02110156
KSBA - Santa Barbara, California, USA
Distance from station: WNW 49mi, 79km
Updated: Tue, 19-Sep-2017 6:53pm PDT
Clear
Clear
 Wind from calm
Wind: Calm
Temperature: 66°F , 19°C
Dew Point: 57°F , 14°C
Humidity: 73%
Barometer: 29.85 inHg , 1010.8 hPa
Clouds: Clear
Visibility: 10 miles , 16 km
2017/09/20 01:53 KSBA 200153Z 00000KT 10SM CLR 19/14 A2985 RMK AO2 SLP106 T01940139